sensor_id;sensor_type;location;lat;lon;timestamp;P1;durP1;ratioP1;P2;durP2;ratioP2
239;SDS011;104;53.590;10.004;2022-10-13T00:00:38;59.90;;;27.00;;
239;SDS011;104;53.590;10.004;2022-10-13T00:03:06;59.87;;;28.40;;
239;SDS011;104;53.590;10.004;2022-10-13T00:05:38;56.60;;;27.10;;
239;SDS011;104;53.590;10.004;2022-10-13T00:08:05;67.83;;;27.57;;
239;SDS011;104;53.590;10.004;2022-10-13T00:10:34;50.43;;;27.40;;
239;SDS011;104;53.590;10.004;2022-10-13T00:13:02;51.37;;;25.40;;
239;SDS011;104;53.590;10.004;2022-10-13T00:15:30;56.10;;;27.37;;
239;SDS011;104;53.590;10.004;2022-10-13T00:17:57;52.70;;;25.77;;
239;SDS011;104;53.590;10.004;2022-10-13T00:20:24;51.17;;;25.97;;
239;SDS011;104;53.590;10.004;2022-10-13T00:22:53;70.90;;;28.33;;
239;SDS011;104;53.590;10.004;2022-10-13T00:25:20;58.10;;;28.00;;
239;SDS011;104;53.590;10.004;2022-10-13T00:27:47;55.07;;;27.17;;
239;SDS011;104;53.590;10.004;2022-10-13T00:30:15;69.57;;;27.93;;
239;SDS011;104;53.590;10.004;2022-10-13T00:32:43;51.53;;;26.57;;
239;SDS011;104;53.590;10.004;2022-10-13T00:35:10;53.03;;;27.10;;
239;SDS011;104;53.590;10.004;2022-10-13T00:37:37;53.83;;;27.00;;
239;SDS011;104;53.590;10.004;2022-10-13T00:40:07;56.70;;;26.37;;
239;SDS011;104;53.590;10.004;2022-10-13T00:42:34;50.17;;;26.27;;
239;SDS011;104;53.590;10.004;2022-10-13T00:45:05;59.13;;;27.23;;
239;SDS011;104;53.590;10.004;2022-10-13T00:47:35;53.90;;;27.03;;
239;SDS011;104;53.590;10.004;2022-10-13T00:50:03;61.03;;;27.47;;
239;SDS011;104;53.590;10.004;2022-10-13T03:38:45;57.20;;;29.23;;
239;SDS011;104;53.590;10.004;2022-10-13T03:41:14;64.00;;;28.90;;
239;SDS011;104;53.590;10.004;2022-10-13T03:43:41;61.23;;;29.30;;
239;SDS011;104;53.590;10.004;2022-10-13T03:46:09;54.03;;;28.40;;
239;SDS011;104;53.590;10.004;2022-10-13T03:48:37;56.83;;;29.23;;
239;SDS011;104;53.590;10.004;2022-10-13T03:51:05;54.60;;;27.10;;
239;SDS011;104;53.590;10.004;2022-10-13T03:53:33;57.47;;;28.47;;
239;SDS011;104;53.590;10.004;2022-10-13T03:56:02;71.33;;;29.50;;
239;SDS011;104;53.590;10.004;2022-10-13T03:58:30;72.33;;;29.73;;
239;SDS011;104;53.590;10.004;2022-10-13T04:01:00;57.47;;;29.13;;
239;SDS011;104;53.590;10.004;2022-10-13T04:03:29;55.10;;;28.70;;
239;SDS011;104;53.590;10.004;2022-10-13T04:05:58;60.13;;;27.47;;
239;SDS011;104;53.590;10.004;2022-10-13T04:08:26;59.30;;;28.70;;
239;SDS011;104;53.590;10.004;2022-10-13T04:10:57;53.47;;;28.47;;
239;SDS011;104;53.590;10.004;2022-10-13T04:13:26;62.33;;;29.57;;
239;SDS011;104;53.590;10.004;2022-10-13T04:16:00;64.23;;;30.87;;
239;SDS011;104;53.590;10.004;2022-10-13T04:18:27;48.50;;;28.20;;
239;SDS011;104;53.590;10.004;2022-10-13T04:20:55;66.73;;;28.60;;
239;SDS011;104;53.590;10.004;2022-10-13T04:23:22;54.10;;;29.27;;
239;SDS011;104;53.590;10.004;2022-10-13T04:25:50;59.83;;;30.17;;
239;SDS011;104;53.590;10.004;2022-10-13T04:28:17;58.07;;;30.23;;
239;SDS011;104;53.590;10.004;2022-10-13T04:30:46;56.37;;;29.33;;
239;SDS011;104;53.590;10.004;2022-10-13T04:33:13;60.60;;;29.97;;
239;SDS011;104;53.590;10.004;2022-10-13T04:35:40;65.90;;;29.30;;
239;SDS011;104;53.590;10.004;2022-10-13T04:38:08;53.20;;;28.30;;
239;SDS011;104;53.590;10.004;2022-10-13T04:40:35;53.33;;;29.07;;
239;SDS011;104;53.590;10.004;2022-10-13T04:43:02;60.00;;;30.37;;
239;SDS011;104;53.590;10.004;2022-10-13T04:45:30;57.07;;;33.10;;
239;SDS011;104;53.590;10.004;2022-10-13T04:47:58;60.67;;;33.97;;
239;SDS011;104;53.590;10.004;2022-10-13T04:50:26;59.40;;;30.83;;
239;SDS011;104;53.590;10.004;2022-10-13T04:52:53;52.90;;;30.20;;
239;SDS011;104;53.590;10.004;2022-10-13T04:55:20;68.90;;;30.77;;
239;SDS011;104;53.590;10.004;2022-10-13T04:57:48;55.50;;;29.77;;
239;SDS011;104;53.590;10.004;2022-10-13T05:00:15;57.33;;;31.00;;
239;SDS011;104;53.590;10.004;2022-10-13T05:02:42;63.47;;;29.73;;
239;SDS011;104;53.590;10.004;2022-10-13T05:05:11;57.63;;;30.77;;
239;SDS011;104;53.590;10.004;2022-10-13T05:07:38;56.70;;;30.37;;
239;SDS011;104;53.590;10.004;2022-10-13T05:10:06;55.17;;;29.93;;
239;SDS011;104;53.590;10.004;2022-10-13T05:12:33;49.93;;;29.43;;
239;SDS011;104;53.590;10.004;2022-10-13T05:15:01;57.00;;;30.27;;
239;SDS011;104;53.590;10.004;2022-10-13T05:17:28;58.40;;;30.73;;
239;SDS011;104;53.590;10.004;2022-10-13T05:19:56;67.33;;;29.63;;
239;SDS011;104;53.590;10.004;2022-10-13T05:22:25;51.60;;;30.90;;
239;SDS011;104;53.590;10.004;2022-10-13T05:24:53;56.37;;;31.27;;
239;SDS011;104;53.590;10.004;2022-10-13T05:27:21;53.40;;;30.00;;
239;SDS011;104;53.590;10.004;2022-10-13T05:29:48;61.60;;;30.40;;
239;SDS011;104;53.590;10.004;2022-10-13T05:32:15;49.03;;;30.37;;
239;SDS011;104;53.590;10.004;2022-10-13T05:34:42;55.03;;;30.30;;
239;SDS011;104;53.590;10.004;2022-10-13T05:37:10;50.00;;;29.90;;
239;SDS011;104;53.590;10.004;2022-10-13T05:39:39;49.93;;;30.37;;
239;SDS011;104;53.590;10.004;2022-10-13T05:42:06;53.77;;;29.97;;
239;SDS011;104;53.590;10.004;2022-10-13T05:44:33;64.97;;;29.70;;
239;SDS011;104;53.590;10.004;2022-10-13T05:47:01;53.43;;;30.20;;
239;SDS011;104;53.590;10.004;2022-10-13T05:49:29;49.77;;;29.30;;
239;SDS011;104;53.590;10.004;2022-10-13T05:51:57;53.80;;;30.10;;
239;SDS011;104;53.590;10.004;2022-10-13T05:54:26;69.27;;;30.00;;
239;SDS011;104;53.590;10.004;2022-10-13T05:56:58;59.73;;;28.80;;
239;SDS011;104;53.590;10.004;2022-10-13T05:59:27;57.20;;;29.80;;
239;SDS011;104;53.590;10.004;2022-10-13T06:01:55;54.00;;;29.73;;
239;SDS011;104;53.590;10.004;2022-10-13T06:04:27;61.83;;;31.10;;
239;SDS011;104;53.590;10.004;2022-10-13T06:06:56;59.57;;;31.17;;
239;SDS011;104;53.590;10.004;2022-10-13T06:09:23;53.90;;;29.83;;
239;SDS011;104;53.590;10.004;2022-10-13T06:11:50;52.00;;;29.00;;
239;SDS011;104;53.590;10.004;2022-10-13T06:14:19;73.77;;;29.93;;
239;SDS011;104;53.590;10.004;2022-10-13T06:16:46;52.40;;;29.10;;
239;SDS011;104;53.590;10.004;2022-10-13T06:19:14;52.17;;;28.53;;
239;SDS011;104;53.590;10.004;2022-10-13T06:21:41;53.40;;;28.37;;
239;SDS011;104;53.590;10.004;2022-10-13T06:24:08;50.70;;;28.60;;
239;SDS011;104;53.590;10.004;2022-10-13T06:26:36;52.43;;;28.40;;
239;SDS011;104;53.590;10.004;2022-10-13T06:29:03;54.93;;;28.37;;
239;SDS011;104;53.590;10.004;2022-10-13T06:31:32;67.37;;;27.00;;
239;SDS011;104;53.590;10.004;2022-10-13T06:34:00;53.13;;;26.30;;
239;SDS011;104;53.590;10.004;2022-10-13T06:36:27;54.67;;;28.33;;
239;SDS011;104;53.590;10.004;2022-10-13T06:38:55;51.77;;;28.10;;
239;SDS011;104;53.590;10.004;2022-10-13T06:41:22;53.20;;;28.83;;
239;SDS011;104;53.590;10.004;2022-10-13T06:43:50;49.73;;;28.27;;
239;SDS011;104;53.590;10.004;2022-10-13T06:46:17;51.53;;;28.23;;
239;SDS011;104;53.590;10.004;2022-10-13T06:48:47;60.13;;;31.00;;
239;SDS011;104;53.590;10.004;2022-10-13T06:51:14;47.10;;;27.73;;
239;SDS011;104;53.590;10.004;2022-10-13T06:53:42;53.47;;;28.13;;
239;SDS011;104;53.590;10.004;2022-10-13T06:56:09;55.43;;;28.93;;
239;SDS011;104;53.590;10.004;2022-10-13T06:58:36;65.00;;;32.87;;
239;SDS011;104;53.590;10.004;2022-10-13T07:01:05;51.03;;;27.80;;
239;SDS011;104;53.590;10.004;2022-10-13T07:03:33;52.30;;;29.40;;
239;SDS011;104;53.590;10.004;2022-10-13T07:06:02;55.87;;;29.77;;
239;SDS011;104;53.590;10.004;2022-10-13T07:08:30;51.23;;;28.93;;
239;SDS011;104;53.590;10.004;2022-10-13T07:10:58;59.30;;;29.70;;
239;SDS011;104;53.590;10.004;2022-10-13T07:13:25;46.13;;;27.67;;
239;SDS011;104;53.590;10.004;2022-10-13T07:15:52;50.03;;;27.83;;
239;SDS011;104;53.590;10.004;2022-10-13T07:18:19;52.23;;;27.80;;
239;SDS011;104;53.590;10.004;2022-10-13T07:20:47;48.67;;;28.03;;
239;SDS011;104;53.590;10.004;2022-10-13T07:23:15;52.07;;;29.77;;
239;SDS011;104;53.590;10.004;2022-10-13T07:25:43;58.80;;;29.90;;
239;SDS011;104;53.590;10.004;2022-10-13T07:28:10;52.17;;;29.77;;
239;SDS011;104;53.590;10.004;2022-10-13T07:30:37;51.00;;;28.70;;
239;SDS011;104;53.590;10.004;2022-10-13T07:33:05;60.13;;;30.17;;
239;SDS011;104;53.590;10.004;2022-10-13T07:35:32;52.10;;;27.93;;
239;SDS011;104;53.590;10.004;2022-10-13T07:38:00;52.23;;;29.30;;
239;SDS011;104;53.590;10.004;2022-10-13T07:40:28;58.03;;;28.67;;
239;SDS011;104;53.590;10.004;2022-10-13T07:42:56;53.83;;;29.30;;
239;SDS011;104;53.590;10.004;2022-10-13T07:45:23;58.43;;;30.60;;
239;SDS011;104;53.590;10.004;2022-10-13T07:47:51;50.97;;;28.83;;
239;SDS011;104;53.590;10.004;2022-10-13T07:50:18;50.07;;;28.93;;
239;SDS011;104;53.590;10.004;2022-10-13T07:52:45;49.10;;;29.43;;
239;SDS011;104;53.590;10.004;2022-10-13T07:55:12;53.60;;;30.67;;
239;SDS011;104;53.590;10.004;2022-10-13T07:57:41;51.63;;;29.60;;
239;SDS011;104;53.590;10.004;2022-10-13T08:00:09;58.27;;;28.27;;
239;SDS011;104;53.590;10.004;2022-10-13T08:02:36;45.50;;;28.23;;
239;SDS011;104;53.590;10.004;2022-10-13T08:05:04;52.03;;;29.87;;
239;SDS011;104;53.590;10.004;2022-10-13T08:07:31;50.23;;;30.30;;
239;SDS011;104;53.590;10.004;2022-10-13T08:10:00;53.23;;;30.03;;
239;SDS011;104;53.590;10.004;2022-10-13T08:12:27;58.70;;;30.43;;
239;SDS011;104;53.590;10.004;2022-10-13T08:14:56;52.57;;;30.47;;
239;SDS011;104;53.590;10.004;2022-10-13T08:17:23;55.40;;;30.73;;
239;SDS011;104;53.590;10.004;2022-10-13T08:19:50;61.13;;;29.90;;
239;SDS011;104;53.590;10.004;2022-10-13T08:22:18;63.37;;;28.60;;
239;SDS011;104;53.590;10.004;2022-10-13T08:24:45;54.30;;;30.00;;
239;SDS011;104;53.590;10.004;2022-10-13T08:27:13;52.93;;;30.20;;
239;SDS011;104;53.590;10.004;2022-10-13T08:29:42;53.37;;;30.10;;
239;SDS011;104;53.590;10.004;2022-10-13T08:32:11;58.80;;;30.20;;
239;SDS011;104;53.590;10.004;2022-10-13T08:34:38;57.77;;;28.93;;
239;SDS011;104;53.590;10.004;2022-10-13T08:37:10;52.43;;;30.43;;
239;SDS011;104;53.590;10.004;2022-10-13T08:39:38;51.17;;;29.40;;
239;SDS011;104;53.590;10.004;2022-10-13T08:42:10;56.83;;;29.93;;
239;SDS011;104;53.590;10.004;2022-10-13T08:44:39;54.70;;;32.20;;
239;SDS011;104;53.590;10.004;2022-10-13T08:47:08;57.57;;;31.00;;
239;SDS011;104;53.590;10.004;2022-10-13T08:49:40;61.47;;;31.93;;
239;SDS011;104;53.590;10.004;2022-10-13T08:52:10;61.47;;;30.80;;
239;SDS011;104;53.590;10.004;2022-10-13T08:54:42;58.67;;;32.03;;
239;SDS011;104;53.590;10.004;2022-10-13T08:57:10;68.77;;;31.97;;
239;SDS011;104;53.590;10.004;2022-10-13T08:59:37;52.70;;;30.30;;
239;SDS011;104;53.590;10.004;2022-10-13T09:02:08;59.87;;;30.33;;
239;SDS011;104;53.590;10.004;2022-10-13T09:04:38;57.43;;;31.20;;
239;SDS011;104;53.590;10.004;2022-10-13T09:07:09;52.97;;;30.40;;
239;SDS011;104;53.590;10.004;2022-10-13T09:09:38;56.90;;;30.67;;
239;SDS011;104;53.590;10.004;2022-10-13T09:12:05;52.83;;;31.77;;
239;SDS011;104;53.590;10.004;2022-10-13T09:14:33;60.40;;;30.80;;
239;SDS011;104;53.590;10.004;2022-10-13T09:17:11;54.50;;;29.50;;
239;SDS011;104;53.590;10.004;2022-10-13T09:19:39;52.87;;;30.40;;
239;SDS011;104;53.590;10.004;2022-10-13T09:22:14;62.00;;;28.80;;
239;SDS011;104;53.590;10.004;2022-10-13T09:24:42;55.63;;;29.80;;
239;SDS011;104;53.590;10.004;2022-10-13T09:27:10;52.87;;;31.20;;
239;SDS011;104;53.590;10.004;2022-10-13T09:29:38;46.00;;;28.63;;
239;SDS011;104;53.590;10.004;2022-10-13T09:32:08;52.20;;;30.90;;
239;SDS011;104;53.590;10.004;2022-10-13T09:34:39;70.53;;;31.43;;
239;SDS011;104;53.590;10.004;2022-10-13T09:37:15;51.90;;;29.50;;
239;SDS011;104;53.590;10.004;2022-10-13T09:39:44;50.70;;;29.63;;
239;SDS011;104;53.590;10.004;2022-10-13T09:42:19;48.00;;;29.47;;
239;SDS011;104;53.590;10.004;2022-10-13T09:44:47;60.57;;;30.33;;
239;SDS011;104;53.590;10.004;2022-10-13T09:47:18;59.77;;;30.67;;
239;SDS011;104;53.590;10.004;2022-10-13T09:49:56;60.13;;;29.77;;
239;SDS011;104;53.590;10.004;2022-10-13T11:41:57;63.70;;;28.00;;
239;SDS011;104;53.590;10.004;2022-10-13T11:44:30;48.40;;;26.70;;
239;SDS011;104;53.590;10.004;2022-10-13T11:47:01;44.40;;;25.67;;
239;SDS011;104;53.590;10.004;2022-10-13T11:49:42;47.03;;;26.53;;
239;SDS011;104;53.590;10.004;2022-10-13T11:52:26;46.60;;;26.47;;
239;SDS011;104;53.590;10.004;2022-10-13T11:55:00;54.23;;;25.90;;
239;SDS011;104;53.590;10.004;2022-10-13T12:09:13;48.10;;;26.43;;
239;SDS011;104;53.590;10.004;2022-10-13T12:11:57;57.43;;;26.67;;
239;SDS011;104;53.590;10.004;2022-10-13T12:48:34;37.03;;;21.20;;
239;SDS011;104;53.590;10.004;2022-10-13T12:51:13;47.60;;;22.93;;
239;SDS011;104;53.590;10.004;2022-10-13T12:53:41;42.23;;;20.10;;
239;SDS011;104;53.590;10.004;2022-10-13T12:56:16;46.03;;;20.83;;
239;SDS011;104;53.590;10.004;2022-10-13T12:58:44;31.80;;;19.50;;
239;SDS011;104;53.590;10.004;2022-10-13T13:01:21;32.27;;;18.67;;
239;SDS011;104;53.590;10.004;2022-10-13T13:03:57;40.77;;;18.70;;
239;SDS011;104;53.590;10.004;2022-10-13T13:06:31;37.63;;;19.30;;
239;SDS011;104;53.590;10.004;2022-10-13T13:14:44;39.10;;;18.40;;
239;SDS011;104;53.590;10.004;2022-10-13T13:17:13;32.53;;;17.70;;
239;SDS011;104;53.590;10.004;2022-10-13T13:19:43;33.00;;;17.17;;
239;SDS011;104;53.590;10.004;2022-10-13T13:22:11;31.03;;;18.57;;
239;SDS011;104;53.590;10.004;2022-10-13T13:24:39;34.23;;;18.10;;
239;SDS011;104;53.590;10.004;2022-10-13T13:27:10;38.13;;;15.47;;
239;SDS011;104;53.590;10.004;2022-10-13T13:29:41;34.10;;;18.33;;
239;SDS011;104;53.590;10.004;2022-10-13T13:32:10;39.93;;;19.33;;
239;SDS011;104;53.590;10.004;2022-10-13T13:34:37;38.37;;;18.00;;
239;SDS011;104;53.590;10.004;2022-10-13T13:37:07;35.07;;;17.90;;
239;SDS011;104;53.590;10.004;2022-10-13T13:39:36;32.03;;;17.80;;
239;SDS011;104;53.590;10.004;2022-10-13T13:42:03;33.87;;;17.53;;
239;SDS011;104;53.590;10.004;2022-10-13T13:44:30;37.63;;;19.70;;
239;SDS011;104;53.590;10.004;2022-10-13T13:46:57;34.37;;;19.00;;
239;SDS011;104;53.590;10.004;2022-10-13T13:49:25;31.03;;;17.83;;
239;SDS011;104;53.590;10.004;2022-10-13T13:51:52;33.23;;;17.47;;
239;SDS011;104;53.590;10.004;2022-10-13T13:54:21;29.47;;;17.50;;
239;SDS011;104;53.590;10.004;2022-10-13T13:56:48;36.70;;;18.93;;
239;SDS011;104;53.590;10.004;2022-10-13T13:59:15;40.50;;;18.67;;
239;SDS011;104;53.590;10.004;2022-10-13T14:01:43;29.30;;;17.90;;
239;SDS011;104;53.590;10.004;2022-10-13T14:04:11;36.83;;;18.10;;
239;SDS011;104;53.590;10.004;2022-10-13T14:06:41;33.97;;;18.03;;
239;SDS011;104;53.590;10.004;2022-10-13T14:09:09;35.63;;;17.27;;
239;SDS011;104;53.590;10.004;2022-10-13T14:11:38;33.73;;;17.43;;
239;SDS011;104;53.590;10.004;2022-10-13T14:14:06;30.10;;;17.63;;
239;SDS011;104;53.590;10.004;2022-10-13T14:16:33;30.37;;;17.10;;
239;SDS011;104;53.590;10.004;2022-10-13T14:19:00;28.53;;;16.70;;
239;SDS011;104;53.590;10.004;2022-10-13T14:21:28;37.80;;;17.27;;
239;SDS011;104;53.590;10.004;2022-10-13T14:23:55;32.80;;;17.50;;
239;SDS011;104;53.590;10.004;2022-10-13T14:26:22;29.80;;;16.90;;
239;SDS011;104;53.590;10.004;2022-10-13T14:28:51;31.43;;;17.37;;
239;SDS011;104;53.590;10.004;2022-10-13T14:31:21;32.13;;;17.67;;
239;SDS011;104;53.590;10.004;2022-10-13T14:33:50;33.10;;;16.80;;
239;SDS011;104;53.590;10.004;2022-10-13T14:36:17;37.20;;;17.10;;
239;SDS011;104;53.590;10.004;2022-10-13T14:38:46;30.47;;;16.17;;
239;SDS011;104;53.590;10.004;2022-10-13T14:41:15;30.70;;;16.30;;
239;SDS011;104;53.590;10.004;2022-10-13T14:43:43;28.93;;;18.10;;
239;SDS011;104;53.590;10.004;2022-10-13T14:46:19;33.43;;;16.50;;
239;SDS011;104;53.590;10.004;2022-10-13T14:48:47;29.87;;;17.20;;
239;SDS011;104;53.590;10.004;2022-10-13T14:51:23;30.23;;;17.60;;
239;SDS011;104;53.590;10.004;2022-10-13T14:53:51;33.07;;;16.90;;
239;SDS011;104;53.590;10.004;2022-10-13T14:56:22;36.17;;;17.40;;
239;SDS011;104;53.590;10.004;2022-10-13T14:58:50;33.40;;;17.80;;
239;SDS011;104;53.590;10.004;2022-10-13T15:01:23;28.20;;;17.17;;
239;SDS011;104;53.590;10.004;2022-10-13T15:03:50;28.63;;;16.33;;
239;SDS011;104;53.590;10.004;2022-10-13T15:06:18;31.13;;;17.20;;
239;SDS011;104;53.590;10.004;2022-10-13T15:08:48;31.10;;;16.30;;
239;SDS011;104;53.590;10.004;2022-10-13T15:11:16;28.87;;;16.20;;
239;SDS011;104;53.590;10.004;2022-10-13T15:13:47;24.67;;;16.60;;
239;SDS011;104;53.590;10.004;2022-10-13T15:16:15;33.40;;;16.80;;
239;SDS011;104;53.590;10.004;2022-10-13T15:18:44;34.17;;;15.83;;
239;SDS011;104;53.590;10.004;2022-10-13T15:21:11;32.70;;;16.50;;
239;SDS011;104;53.590;10.004;2022-10-13T15:23:38;32.87;;;16.80;;
239;SDS011;104;53.590;10.004;2022-10-13T15:26:06;33.63;;;16.30;;
239;SDS011;104;53.590;10.004;2022-10-13T15:28:34;29.20;;;15.60;;
239;SDS011;104;53.590;10.004;2022-10-13T15:31:01;30.10;;;17.30;;
239;SDS011;104;53.590;10.004;2022-10-13T15:33:29;32.47;;;15.47;;
239;SDS011;104;53.590;10.004;2022-10-13T15:35:58;29.13;;;16.43;;
239;SDS011;104;53.590;10.004;2022-10-13T15:38:26;37.70;;;16.87;;
239;SDS011;104;53.590;10.004;2022-10-13T15:40:59;34.83;;;17.63;;
239;SDS011;104;53.590;10.004;2022-10-13T15:43:27;35.10;;;18.53;;
239;SDS011;104;53.590;10.004;2022-10-13T15:45:55;33.97;;;18.60;;
239;SDS011;104;53.590;10.004;2022-10-13T15:48:23;30.47;;;16.80;;
239;SDS011;104;53.590;10.004;2022-10-13T15:50:50;33.63;;;18.50;;
239;SDS011;104;53.590;10.004;2022-10-13T15:53:19;37.67;;;18.40;;
239;SDS011;104;53.590;10.004;2022-10-13T15:55:46;30.43;;;18.00;;
239;SDS011;104;53.590;10.004;2022-10-13T15:58:14;31.43;;;19.10;;
239;SDS011;104;53.590;10.004;2022-10-13T16:00:41;31.53;;;18.90;;
239;SDS011;104;53.590;10.004;2022-10-13T16:03:11;33.70;;;19.90;;
239;SDS011;104;53.590;10.004;2022-10-13T16:05:40;40.90;;;19.53;;
239;SDS011;104;53.590;10.004;2022-10-13T16:08:07;39.37;;;20.90;;
239;SDS011;104;53.590;10.004;2022-10-13T16:10:46;34.70;;;20.57;;
239;SDS011;104;53.590;10.004;2022-10-13T16:13:13;34.30;;;18.87;;
239;SDS011;104;53.590;10.004;2022-10-13T16:15:41;35.00;;;20.70;;
239;SDS011;104;53.590;10.004;2022-10-13T16:18:09;34.63;;;19.40;;
239;SDS011;104;53.590;10.004;2022-10-13T16:20:37;30.50;;;19.93;;
239;SDS011;104;53.590;10.004;2022-10-13T16:23:09;39.10;;;19.50;;
239;SDS011;104;53.590;10.004;2022-10-13T16:25:38;34.87;;;19.80;;
239;SDS011;104;53.590;10.004;2022-10-13T16:28:07;30.70;;;18.90;;
239;SDS011;104;53.590;10.004;2022-10-13T16:30:35;37.50;;;19.47;;
239;SDS011;104;53.590;10.004;2022-10-13T16:33:02;29.87;;;18.10;;
239;SDS011;104;53.590;10.004;2022-10-13T16:35:29;38.37;;;17.63;;
239;SDS011;104;53.590;10.004;2022-10-13T16:37:58;32.77;;;17.93;;
239;SDS011;104;53.590;10.004;2022-10-13T16:40:25;35.07;;;18.93;;
239;SDS011;104;53.590;10.004;2022-10-13T16:42:52;38.00;;;19.40;;
239;SDS011;104;53.590;10.004;2022-10-13T16:45:21;35.93;;;18.47;;
239;SDS011;104;53.590;10.004;2022-10-13T16:47:49;29.87;;;18.67;;
239;SDS011;104;53.590;10.004;2022-10-13T16:50:16;33.33;;;19.90;;
239;SDS011;104;53.590;10.004;2022-10-13T16:52:43;42.73;;;21.00;;
239;SDS011;104;53.590;10.004;2022-10-13T16:55:11;42.87;;;19.93;;
239;SDS011;104;53.590;10.004;2022-10-13T16:57:39;33.23;;;20.63;;
239;SDS011;104;53.590;10.004;2022-10-13T17:00:10;34.37;;;19.37;;
239;SDS011;104;53.590;10.004;2022-10-13T17:02:39;40.10;;;19.13;;
239;SDS011;104;53.590;10.004;2022-10-13T17:05:06;36.20;;;20.40;;
239;SDS011;104;53.590;10.004;2022-10-13T17:07:34;42.87;;;20.07;;
239;SDS011;104;53.590;10.004;2022-10-13T17:10:06;42.63;;;19.70;;
239;SDS011;104;53.590;10.004;2022-10-13T17:12:48;35.00;;;21.40;;
239;SDS011;104;53.590;10.004;2022-10-13T17:15:15;40.57;;;19.53;;
239;SDS011;104;53.590;10.004;2022-10-13T17:17:45;34.30;;;20.50;;
239;SDS011;104;53.590;10.004;2022-10-13T17:20:13;40.33;;;23.57;;
239;SDS011;104;53.590;10.004;2022-10-13T17:22:42;33.90;;;20.00;;
239;SDS011;104;53.590;10.004;2022-10-13T17:25:11;36.50;;;21.23;;
239;SDS011;104;53.590;10.004;2022-10-13T17:27:38;37.37;;;19.87;;
239;SDS011;104;53.590;10.004;2022-10-13T17:30:07;36.90;;;19.93;;
239;SDS011;104;53.590;10.004;2022-10-13T17:32:35;33.23;;;20.47;;
239;SDS011;104;53.590;10.004;2022-10-13T17:35:10;36.93;;;21.33;;
239;SDS011;104;53.590;10.004;2022-10-13T17:37:42;57.90;;;29.43;;
239;SDS011;104;53.590;10.004;2022-10-13T17:40:10;52.23;;;30.00;;
239;SDS011;104;53.590;10.004;2022-10-13T17:42:51;38.20;;;18.07;;
239;SDS011;104;53.590;10.004;2022-10-13T17:45:32;41.00;;;24.57;;
239;SDS011;104;53.590;10.004;2022-10-13T17:48:05;58.37;;;23.70;;
239;SDS011;104;53.590;10.004;2022-10-13T17:50:36;50.77;;;24.97;;
239;SDS011;104;53.590;10.004;2022-10-13T17:53:16;47.47;;;26.30;;
239;SDS011;104;53.590;10.004;2022-10-13T17:55:44;41.67;;;25.40;;
239;SDS011;104;53.590;10.004;2022-10-13T17:58:15;45.97;;;25.37;;
239;SDS011;104;53.590;10.004;2022-10-13T18:00:43;44.67;;;23.60;;
239;SDS011;104;53.590;10.004;2022-10-13T18:03:25;62.87;;;28.77;;
239;SDS011;104;53.590;10.004;2022-10-13T18:09:03;42.07;;;22.77;;
239;SDS011;104;53.590;10.004;2022-10-13T18:11:44;48.33;;;25.17;;
239;SDS011;104;53.590;10.004;2022-10-13T18:14:28;41.13;;;23.00;;
239;SDS011;104;53.590;10.004;2022-10-13T18:17:10;33.67;;;20.43;;
239;SDS011;104;53.590;10.004;2022-10-13T18:19:51;37.97;;;21.73;;
239;SDS011;104;53.590;10.004;2022-10-13T18:22:29;51.87;;;26.13;;
239;SDS011;104;53.590;10.004;2022-10-13T18:25:11;48.43;;;23.67;;
239;SDS011;104;53.590;10.004;2022-10-13T18:27:47;38.13;;;22.80;;
239;SDS011;104;53.590;10.004;2022-10-13T18:30:18;42.60;;;24.10;;
239;SDS011;104;53.590;10.004;2022-10-13T18:32:45;52.50;;;25.13;;
239;SDS011;104;53.590;10.004;2022-10-13T18:35:12;49.17;;;26.50;;
239;SDS011;104;53.590;10.004;2022-10-13T18:37:48;42.50;;;25.00;;
239;SDS011;104;53.590;10.004;2022-10-13T18:40:16;43.57;;;24.43;;
239;SDS011;104;53.590;10.004;2022-10-13T18:42:45;52.97;;;25.00;;
239;SDS011;104;53.590;10.004;2022-10-13T18:45:13;44.30;;;24.47;;
239;SDS011;104;53.590;10.004;2022-10-13T18:47:41;45.77;;;25.80;;
239;SDS011;104;53.590;10.004;2022-10-13T18:50:09;53.60;;;26.50;;
239;SDS011;104;53.590;10.004;2022-10-13T18:52:36;45.73;;;25.33;;
239;SDS011;104;53.590;10.004;2022-10-13T18:55:06;43.10;;;22.97;;
239;SDS011;104;53.590;10.004;2022-10-13T18:57:34;56.70;;;25.90;;
239;SDS011;104;53.590;10.004;2022-10-13T19:00:02;42.57;;;24.70;;
239;SDS011;104;53.590;10.004;2022-10-13T19:02:32;47.93;;;21.90;;
239;SDS011;104;53.590;10.004;2022-10-13T19:04:59;51.53;;;28.30;;
239;SDS011;104;53.590;10.004;2022-10-13T19:07:29;65.60;;;33.27;;
239;SDS011;104;53.590;10.004;2022-10-13T19:09:57;52.13;;;24.40;;
239;SDS011;104;53.590;10.004;2022-10-13T19:12:27;44.73;;;24.40;;
239;SDS011;104;53.590;10.004;2022-10-13T19:14:55;53.70;;;23.77;;
239;SDS011;104;53.590;10.004;2022-10-13T19:17:23;43.40;;;24.90;;
239;SDS011;104;53.590;10.004;2022-10-13T19:19:52;44.80;;;26.17;;
239;SDS011;104;53.590;10.004;2022-10-13T19:22:20;47.13;;;25.40;;
239;SDS011;104;53.590;10.004;2022-10-13T19:24:51;56.13;;;25.10;;
239;SDS011;104;53.590;10.004;2022-10-13T19:27:18;42.37;;;24.40;;
239;SDS011;104;53.590;10.004;2022-10-13T19:29:48;38.03;;;23.50;;
239;SDS011;104;53.590;10.004;2022-10-13T19:32:17;39.60;;;22.13;;
239;SDS011;104;53.590;10.004;2022-10-13T19:34:45;56.57;;;26.27;;
239;SDS011;104;53.590;10.004;2022-10-13T19:37:12;55.37;;;25.30;;
239;SDS011;104;53.590;10.004;2022-10-13T19:39:40;49.40;;;23.73;;
239;SDS011;104;53.590;10.004;2022-10-13T19:42:08;41.00;;;22.60;;
239;SDS011;104;53.590;10.004;2022-10-13T19:44:36;43.30;;;23.87;;
239;SDS011;104;53.590;10.004;2022-10-13T19:47:05;42.37;;;22.90;;
239;SDS011;104;53.590;10.004;2022-10-13T19:49:33;57.33;;;22.03;;
239;SDS011;104;53.590;10.004;2022-10-13T19:52:00;51.00;;;22.93;;
239;SDS011;104;53.590;10.004;2022-10-13T19:54:28;44.17;;;23.17;;
239;SDS011;104;53.590;10.004;2022-10-13T19:56:58;45.60;;;23.70;;
239;SDS011;104;53.590;10.004;2022-10-13T19:59:26;40.47;;;22.50;;
239;SDS011;104;53.590;10.004;2022-10-13T20:01:53;78.50;;;30.00;;
239;SDS011;104;53.590;10.004;2022-10-13T20:04:23;57.93;;;27.23;;
239;SDS011;104;53.590;10.004;2022-10-13T20:06:50;61.93;;;29.77;;
239;SDS011;104;53.590;10.004;2022-10-13T20:09:18;50.00;;;24.07;;
239;SDS011;104;53.590;10.004;2022-10-13T20:11:47;49.80;;;24.40;;
239;SDS011;104;53.590;10.004;2022-10-13T20:14:14;55.60;;;23.33;;
239;SDS011;104;53.590;10.004;2022-10-13T20:16:42;53.07;;;28.13;;
239;SDS011;104;53.590;10.004;2022-10-13T20:19:10;59.03;;;26.00;;
239;SDS011;104;53.590;10.004;2022-10-13T20:21:39;54.90;;;25.00;;
239;SDS011;104;53.590;10.004;2022-10-13T20:24:07;40.43;;;22.00;;
239;SDS011;104;53.590;10.004;2022-10-13T20:26:34;40.07;;;21.27;;
239;SDS011;104;53.590;10.004;2022-10-13T20:29:04;39.90;;;21.63;;
239;SDS011;104;53.590;10.004;2022-10-13T20:31:32;51.10;;;27.03;;
239;SDS011;104;53.590;10.004;2022-10-13T20:34:00;42.20;;;22.27;;
239;SDS011;104;53.590;10.004;2022-10-13T20:36:27;45.00;;;20.80;;
239;SDS011;104;53.590;10.004;2022-10-13T20:38:58;49.57;;;24.50;;
239;SDS011;104;53.590;10.004;2022-10-13T20:41:29;57.27;;;28.37;;